Time;durP1;ratioP1;P1;durP2;ratioP2;P2;SDS_P1;SDS_P2;PMS_P1;PMS_P2;Temp;Humidity;BMP_temperature;BMP_pressure;BME280_temperature;BME280_humidity;BME280_pressure;Samples;Min_cycle;Max_cycle;Signal;HPM_P1;HPM_P2
2023/05/13 00:01:38;;;;;;;14.40;10.85;;;;;;;17.29;49.50;93318.88;5064184;28;20041;-88
2023/05/13 00:04:05;;;;;;;16.15;11.43;;;;;;;17.30;48.91;93314.88;5047382;28;20411;-87
2023/05/13 00:06:31;;;;;;;16.70;10.73;;;;;;;17.29;49.63;93311.41;5042567;28;20483;-89
2023/05/13 00:08:57;;;;;;;15.40;10.68;;;;;;;17.28;49.30;93318.13;5031652;28;20037;-89
2023/05/13 00:11:22;;;;;;;16.85;11.63;;;;;;;17.29;49.40;93308.69;5029890;28;20040;-89
2023/05/13 00:13:48;;;;;;;18.08;10.73;;;;;;;17.27;49.38;93313.16;5026682;28;20403;-89
2023/05/13 00:16:13;;;;;;;16.85;11.18;;;;;;;17.30;49.46;93310.16;5029612;28;20492;-88
2023/05/13 00:18:39;;;;;;;17.80;11.23;;;;;;;17.31;49.28;93302.72;5048132;28;20534;-88
2023/05/13 00:21:05;;;;;;;15.68;10.10;;;;;;;17.29;49.04;93297.75;5047258;28;20044;-88
2023/05/13 00:23:31;;;;;;;17.17;11.20;;;;;;;17.30;49.30;93291.03;5024515;28;20420;-88
2023/05/13 00:25:57;;;;;;;17.42;10.77;;;;;;;17.25;49.44;93307.47;5063992;28;20463;-88
2023/05/13 00:28:23;;;;;;;17.83;11.55;;;;;;;17.27;49.59;93302.22;5030434;28;20045;-88
2023/05/13 00:30:49;;;;;;;13.60;10.00;;;;;;;17.27;49.45;93299.50;5009420;28;20076;-88
2023/05/13 00:33:14;;;;;;;16.15;10.70;;;;;;;17.28;49.38;93298.25;5046089;28;20076;-88
2023/05/13 00:35:40;;;;;;;17.30;10.30;;;;;;;17.28;49.44;93290.81;5013838;28;20118;-88
2023/05/13 00:38:05;;;;;;;15.13;10.00;;;;;;;17.30;49.26;93295.75;5024424;28;20143;-88
2023/05/13 00:40:31;;;;;;;17.50;10.68;;;;;;;17.33;49.35;93305.66;5030430;28;20466;-88
2023/05/13 00:42:56;;;;;;;14.10;9.82;;;;;;;17.31;49.50;93299.97;5030557;28;20049;-88
2023/05/13 00:45:22;;;;;;;14.88;9.57;;;;;;;17.29;49.27;93300.47;5042913;28;20045;-88
2023/05/13 00:47:47;;;;;;;13.35;9.32;;;;;;;17.27;48.96;93294.03;5013581;28;20043;-88
2023/05/13 00:50:13;;;;;;;12.52;9.15;;;;;;;17.25;49.50;93297.28;5046474;28;20060;-88
2023/05/13 00:52:38;;;;;;;15.60;8.95;;;;;;;17.27;49.11;93288.56;5024226;28;20102;-88
2023/05/13 00:55:04;;;;;;;12.80;9.65;;;;;;;17.27;49.46;93299.50;5009518;28;20037;-88
2023/05/13 00:57:30;;;;;;;12.32;9.23;;;;;;;17.30;49.44;93290.31;5022668;28;20044;-88
2023/05/13 00:59:55;;;;;;;13.68;9.18;;;;;;;17.28;48.90;93301.72;5021227;28;20491;-89
2023/05/13 01:02:42;;;;;;;13.68;9.27;;;;;;;17.27;49.11;93286.59;5001976;28;20609;-88
2023/05/13 01:05:33;;;;;;;15.43;9.63;;;;;;;17.29;49.54;93303.22;5025862;28;20045;-88
2023/05/13 01:08:10;;;;;;;11.70;8.43;;;;;;;17.28;49.31;93303.72;5044560;28;20080;-88
2023/05/13 01:10:46;;;;;;;14.30;9.05;;;;;;;17.26;49.22;93306.22;5030457;28;20045;-89
2023/05/13 01:13:13;;;;;;;15.30;9.32;;;;;;;17.25;49.17;93297.28;5023439;28;20045;-88
2023/05/13 01:15:41;;;;;;;13.90;9.18;;;;;;;17.22;49.27;93303.75;5014002;28;20036;-88
2023/05/13 01:18:12;;;;;;;14.00;8.98;;;;;;;17.22;49.60;93298.28;5009163;28;20532;-88
2023/05/13 01:20:39;;;;;;;;;;;;;;;17.23;49.31;93297.03;4998803;28;20423;-88
2023/05/13 01:23:05;;;;;;;12.98;9.40;;;;;;;17.27;49.28;93304.97;5028593;28;19956;-88
2023/05/13 01:25:31;;;;;;;13.80;8.45;;;;;;;17.26;49.33;93298.75;5070016;28;20407;-88
2023/05/13 01:27:56;;;;;;;13.05;8.63;;;;;;;17.23;49.50;93297.03;5041107;28;20052;-88
2023/05/13 01:30:22;;;;;;;11.88;7.97;;;;;;;17.28;49.08;93301.72;5012317;28;20044;-88
2023/05/13 01:32:47;;;;;;;15.23;8.88;;;;;;;17.23;49.10;93299.75;5029392;28;20067;-88
2023/05/13 01:35:13;;;;;;;14.00;9.20;;;;;;;17.24;49.60;93289.59;5005899;28;20041;-88
2023/05/13 01:37:38;;;;;;;14.80;8.77;;;;;;;17.26;49.41;93298.75;5017139;28;20052;-88
2023/05/13 01:40:05;;;;;;;13.55;9.05;;;;;;;17.24;49.25;93301.25;5004624;28;20037;-88
2023/05/13 01:42:33;;;;;;;12.25;8.35;;;;;;;17.24;49.40;93297.78;4991351;28;20052;-88
2023/05/13 01:44:59;;;;;;;12.20;7.95;;;;;;;17.24;49.63;93303.25;4989225;28;20176;-88
2023/05/13 01:47:24;;;;;;;11.50;8.68;;;;;;;17.27;49.39;93307.69;4990502;28;20049;-89
2023/05/13 01:49:49;;;;;;;13.50;8.98;;;;;;;17.27;49.62;93304.97;5024256;28;20037;-88
2023/05/13 01:52:15;;;;;;;13.05;8.30;;;;;;;17.24;49.54;93298.53;4993454;28;20042;-89
2023/05/13 01:54:40;;;;;;;15.00;8.18;;;;;;;17.26;49.28;93306.97;4988824;28;20516;-87
2023/05/13 01:57:06;;;;;;;16.23;8.90;;;;;;;17.26;49.46;93290.56;5007484;28;20038;-88
2023/05/13 01:59:32;;;;;;;13.05;8.70;;;;;;;17.20;49.27;93302.75;5019418;28;20049;-88
2023/05/13 02:01:57;;;;;;;12.45;8.15;;;;;;;17.26;49.11;93300.75;5008011;28;20080;-88
2023/05/13 02:04:22;;;;;;;11.80;8.18;;;;;;;17.27;49.10;93299.50;5007345;28;20033;-88
2023/05/13 02:06:48;;;;;;;14.23;8.63;;;;;;;17.22;49.39;93301.00;5001172;28;20049;-89
2023/05/13 02:09:13;;;;;;;10.05;7.18;;;;;;;17.20;49.65;93292.59;4998899;28;20076;-88
2023/05/13 02:11:39;;;;;;;11.52;7.78;;;;;;;17.21;49.40;93306.97;5006327;28;20079;-89
2023/05/13 02:14:04;;;;;;;10.38;7.15;;;;;;;17.21;49.02;93302.25;5003762;28;20128;-88
2023/05/13 02:16:30;;;;;;;11.00;7.50;;;;;;;17.20;49.14;93305.50;4994991;28;20052;-89
2023/05/13 02:18:55;;;;;;;10.15;7.10;;;;;;;17.20;49.34;93300.78;5011056;28;20049;-88
2023/05/13 02:21:21;;;;;;;12.00;7.53;;;;;;;17.21;49.35;93296.78;5001001;28;20471;-88
2023/05/13 02:23:46;;;;;;;13.75;8.18;;;;;;;17.21;49.47;93296.06;5020221;28;20053;-88
2023/05/13 02:26:11;;;;;;;10.30;7.20;;;;;;;17.23;49.38;93299.03;5022637;28;20046;-88
2023/05/13 02:28:37;;;;;;;9.73;6.90;;;;;;;17.22;49.41;93306.47;4980674;28;20046;-88
2023/05/13 02:31:02;;;;;;;10.55;7.47;;;;;;;17.20;49.54;93298.03;4990639;28;20606;-88
2023/05/13 02:33:28;;;;;;;11.27;7.40;;;;;;;17.23;49.65;93299.75;5007394;28;20049;-88
2023/05/13 02:35:53;;;;;;;9.85;7.13;;;;;;;17.24;49.74;93305.97;4983695;28;20046;-88
2023/05/13 02:38:18;;;;;;;10.30;7.28;;;;;;;17.20;49.40;93294.56;5023547;28;20140;-88
2023/05/13 02:40:44;;;;;;;11.80;7.57;;;;;;;17.21;49.66;93304.25;4991396;28;20060;-88
2023/05/13 02:43:09;;;;;;;10.48;7.07;;;;;;;17.25;49.58;93302.00;4986107;28;20046;-88
2023/05/13 02:45:35;;;;;;;10.02;6.65;;;;;;;17.25;49.27;93297.28;4990894;28;20555;-88
2023/05/13 02:48:00;;;;;;;10.20;6.90;;;;;;;17.16;49.63;93302.28;4977664;28;20096;-88
2023/05/13 02:50:25;;;;;;;10.55;6.95;;;;;;;17.15;49.69;93287.88;5038219;28;20045;-88
2023/05/13 02:52:51;;;;;;;8.80;6.70;;;;;;;17.20;49.14;93298.03;5026267;28;20041;-89
2023/05/13 02:55:17;;;;;;;9.90;6.35;;;;;;;17.19;49.15;93296.56;5013250;28;20049;-88
2023/05/13 02:57:43;;;;;;;10.50;6.85;;;;;;;17.19;49.25;93298.53;5043438;28;20044;-89
2023/05/13 03:00:09;;;;;;;9.60;7.07;;;;;;;17.20;49.16;93297.31;5030670;28;20045;-89
2023/05/13 03:02:36;;;;;;;9.75;6.82;;;;;;;17.18;49.55;93297.06;5012787;28;20038;-88
2023/05/13 03:05:01;;;;;;;10.52;6.70;;;;;;;17.19;49.23;93295.81;5021490;28;20127;-89
2023/05/13 03:07:27;;;;;;;10.68;7.20;;;;;;;17.19;49.30;93293.81;5048242;28;20084;-88
2023/05/13 03:09:52;;;;;;;9.35;6.20;;;;;;;17.21;49.34;93301.50;5030492;28;20046;-88
2023/05/13 03:12:18;;;;;;;10.30;6.75;;;;;;;17.25;49.44;93297.28;5075657;28;20041;-88
2023/05/13 03:14:43;;;;;;;11.38;6.97;;;;;;;17.18;49.43;93297.06;5032288;28;20126;-88
2023/05/13 03:17:09;;;;;;;7.97;6.05;;;;;;;17.19;49.41;93302.03;5015004;28;20423;-89
2023/05/13 03:19:35;;;;;;;7.22;5.82;;;;;;;17.19;49.36;93293.81;5026234;28;20044;-88
2023/05/13 03:22:01;;;;;;;9.30;6.43;;;;;;;17.18;49.51;93306.00;5032678;28;20114;-89
2023/05/13 03:24:26;;;;;;;10.45;6.35;;;;;;;17.22;49.33;93301.00;5015575;28;20071;-89
2023/05/13 03:26:51;;;;;;;9.02;6.35;;;;;;;17.19;49.28;93312.94;5009321;28;20404;-89
2023/05/13 03:29:17;;;;;;;10.63;6.35;;;;;;;17.21;49.34;93301.50;5028277;28;20052;-88
2023/05/13 03:31:42;;;;;;;9.95;6.85;;;;;;;17.18;49.51;93305.25;5015554;28;20518;-88
2023/05/13 03:34:08;;;;;;;9.45;6.18;;;;;;;17.20;49.15;93305.50;5024981;28;20041;-88
2023/05/13 03:36:33;;;;;;;9.57;5.70;;;;;;;17.23;49.24;93307.22;5014847;28;20419;-88
2023/05/13 03:38:58;;;;;;;8.48;5.80;;;;;;;17.21;49.19;93309.72;5031975;28;20037;-89
2023/05/13 03:41:24;;;;;;;9.40;6.03;;;;;;;17.19;49.38;93310.22;5042081;28;20053;-88
2023/05/13 03:43:50;;;;;;;9.32;5.72;;;;;;;17.16;49.20;93307.75;5032019;28;20045;-88
2023/05/13 03:46:15;;;;;;;10.38;6.22;;;;;;;17.19;49.61;93309.47;5030946;28;20037;-89
2023/05/13 03:48:43;;;;;;;9.27;6.22;;;;;;;17.17;49.39;93312.72;5027224;28;20339;-89
2023/05/13 03:51:09;;;;;;;9.52;6.45;;;;;;;17.14;49.59;93302.78;5039657;28;20052;-88
2023/05/13 03:53:34;;;;;;;8.80;5.70;;;;;;;17.14;49.53;93311.72;5011068;28;20042;-88
2023/05/13 03:56:00;;;;;;;7.40;5.53;;;;;;;17.19;49.40;93309.47;4993474;28;20450;-88
2023/05/13 03:58:25;;;;;;;9.85;6.78;;;;;;;17.17;49.14;93312.72;5013619;28;20041;-89
2023/05/13 04:00:50;;;;;;;10.02;5.82;;;;;;;17.17;49.45;93303.78;5030679;28;20390;-88
2023/05/13 04:03:16;;;;;;;8.75;5.70;;;;;;;17.17;49.25;93314.69;5022813;28;20049;-89
2023/05/13 04:05:42;;;;;;;8.13;5.57;;;;;;;17.25;49.59;93313.66;5030442;28;20040;-89
2023/05/13 04:08:07;;;;;;;8.73;5.28;;;;;;;17.27;49.18;93313.91;5014364;28;20029;-88
2023/05/13 04:10:35;;;;;;;7.20;5.30;;;;;;;17.25;49.51;93310.19;5028183;28;20041;-88
2023/05/13 04:13:01;;;;;;;9.93;6.00;;;;;;;17.29;49.16;93314.16;5046115;28;20769;-89
2023/05/13 04:15:26;;;;;;;7.00;5.25;;;;;;;17.25;48.99;93316.41;5030295;28;20107;-89
2023/05/13 04:17:52;;;;;;;6.72;5.03;;;;;;;17.31;49.01;93321.84;5013965;28;20049;-89
2023/05/13 04:20:18;;;;;;;6.57;5.40;;;;;;;17.32;49.19;93328.78;5042569;28;20049;-89
2023/05/13 04:22:43;;;;;;;7.70;5.18;;;;;;;17.35;48.92;93323.03;5048787;28;20040;-88
2023/05/13 04:25:09;;;;;;;9.25;5.28;;;;;;;17.32;48.61;93323.31;5027252;28;20041;-89
2023/05/13 04:27:34;;;;;;;7.72;5.60;;;;;;;17.36;48.58;93327.25;5042942;28;20162;-89
2023/05/13 04:29:59;;;;;;;9.13;5.75;;;;;;;17.32;48.91;93326.06;5047287;28;20044;-88
2023/05/13 04:32:25;;;;;;;7.28;5.50;;;;;;;17.30;49.18;93331.28;5046604;28;20625;-89
2023/05/13 04:34:51;;;;;;;6.93;4.93;;;;;;;17.30;48.93;93336.75;5009064;28;20052;-89
2023/05/13 04:37:17;;;;;;;8.57;5.45;;;;;;;17.32;48.86;93332.22;5012647;28;20495;-89
2023/05/13 04:39:44;;;;;;;8.75;5.60;;;;;;;17.32;48.74;93334.97;5011372;28;20095;-89
2023/05/13 04:42:10;;;;;;;6.60;4.50;;;;;;;17.30;49.11;93336.75;5021246;28;20037;-89
2023/05/13 04:44:35;;;;;;;7.47;5.50;;;;;;;17.30;49.40;93342.94;5063893;28;20037;-89
2023/05/13 04:47:00;;;;;;;7.00;4.97;;;;;;;17.27;49.16;93352.16;5030110;28;20396;-89
2023/05/13 04:49:26;;;;;;;7.63;5.05;;;;;;;17.27;48.99;93343.22;5007696;28;20605;-89
2023/05/13 04:51:52;;;;;;;7.00;4.70;;;;;;;17.26;49.28;93350.66;5030456;28;20041;-88
2023/05/13 04:54:17;;;;;;;7.20;5.20;;;;;;;17.29;48.74;93351.66;5029697;28;20135;-89
2023/05/13 04:56:43;;;;;;;7.35;5.57;;;;;;;17.27;49.31;93349.41;5025989;28;20053;-89
2023/05/13 04:59:08;;;;;;;6.97;4.82;;;;;;;17.25;48.93;93349.19;5045874;28;20036;-88
2023/05/13 05:01:34;;;;;;;9.07;5.60;;;;;;;17.27;49.06;93349.41;5029085;28;20049;-88
2023/05/13 05:03:59;;;;;;;7.97;5.00;;;;;;;17.25;49.23;93351.91;5007848;28;20056;-89
2023/05/13 05:06:25;;;;;;;7.22;5.35;;;;;;;17.21;49.09;93359.63;5009363;28;20045;-88
2023/05/13 05:08:50;;;;;;;9.45;5.07;;;;;;;17.26;49.24;93358.13;5029931;28;20045;-89
2023/05/13 05:11:16;;;;;;;7.72;5.38;;;;;;;17.24;49.16;93352.41;5006971;28;20025;-89
2023/05/13 05:13:41;;;;;;;5.85;4.57;;;;;;;17.26;49.31;93358.13;5012819;28;20044;-89
2023/05/13 05:16:07;;;;;;;6.95;4.82;;;;;;;17.30;49.06;93347.66;5012790;28;20431;-88
2023/05/13 05:18:34;;;;;;;7.90;5.00;;;;;;;17.26;49.29;93364.31;5041350;28;20094;-88
2023/05/13 05:21:00;;;;;;;7.25;4.55;;;;;;;17.25;49.01;93356.63;5029691;28;20041;-89
2023/05/13 05:23:25;;;;;;;10.68;4.97;;;;;;;17.30;49.21;93364.06;5028633;28;20033;-89
2023/05/13 05:25:51;;;;;;;6.25;4.25;;;;;;;17.27;48.97;93360.34;5021174;28;20045;-89
2023/05/13 05:28:16;;;;;;;8.05;4.75;;;;;;;17.23;48.81;93362.59;5045066;28;20542;-88
2023/05/13 05:30:42;;;;;;;5.97;4.55;;;;;;;17.25;48.97;93360.09;5048014;28;20484;-89
2023/05/13 05:33:07;;;;;;;5.20;4.07;;;;;;;17.22;49.15;93360.38;5006523;28;20079;-89
2023/05/13 05:35:36;;;;;;;7.00;4.43;;;;;;;17.23;49.09;93356.41;5029966;28;20063;-89
2023/05/13 05:38:03;;;;;;;8.05;4.72;;;;;;;17.23;49.17;93359.88;5012077;28;20045;-89
2023/05/13 05:40:29;;;;;;;5.90;4.22;;;;;;;17.24;49.08;93357.88;5015462;28;20349;-89
2023/05/13 05:42:55;;;;;;;5.90;4.47;;;;;;;17.24;49.30;93361.34;5034203;28;20053;-89
2023/05/13 05:45:20;;;;;;;6.55;4.40;;;;;;;17.28;49.04;93361.84;5061882;28;20400;-88
2023/05/13 05:47:45;;;;;;;6.88;4.38;;;;;;;17.28;49.42;93364.56;5018141;28;20407;-88
2023/05/13 05:50:11;;;;;;;7.13;4.22;;;;;;;17.28;49.25;93361.09;5027770;28;20462;-89
2023/05/13 05:52:36;;;;;;;5.85;3.90;;;;;;;17.26;49.03;93364.31;5051075;28;20107;-88
2023/05/13 05:55:02;;;;;;;5.25;3.80;;;;;;;17.25;49.03;93367.56;5041115;28;20041;-88
2023/05/13 05:57:27;;;;;;;7.20;4.25;;;;;;;17.26;48.90;93369.06;5038495;28;20061;-88
2023/05/13 05:59:53;;;;;;;13.93;4.55;;;;;;;17.28;49.37;93364.56;5012701;28;20056;-88
2023/05/13 06:02:18;;;;;;;7.13;4.65;;;;;;;17.25;49.00;93354.66;5016099;28;20052;-89
2023/05/13 06:04:44;;;;;;;8.85;5.00;;;;;;;17.24;49.41;93374.28;5012840;28;20048;-89
2023/05/13 06:07:09;;;;;;;6.00;3.63;;;;;;;17.32;49.00;93372.50;5031301;28;20037;-89
2023/05/13 06:09:35;;;;;;;7.88;4.85;;;;;;;17.30;49.06;93369.53;5013840;28;20060;-89
2023/05/13 06:12:00;;;;;;;6.65;4.22;;;;;;;17.32;48.92;93373.22;5045634;28;20416;-89
2023/05/13 06:14:25;;;;;;;5.40;4.10;;;;;;;17.31;48.76;93366.28;5044335;28;20045;-88
2023/05/13 06:16:51;;;;;;;7.35;4.40;;;;;;;17.30;48.77;93364.81;5024564;28;20045;-88
2023/05/13 06:19:16;;;;;;;6.85;4.68;;;;;;;17.29;49.46;93362.56;5027663;28;20037;-89
2023/05/13 06:21:42;;;;;;;8.40;5.15;;;;;;;17.31;49.21;93360.84;5030063;28;20037;-88
2023/05/13 06:24:08;;;;;;;9.10;3.88;;;;;;;17.32;49.25;93365.03;5026430;28;20049;-88
2023/05/13 06:26:33;;;;;;;5.57;4.07;;;;;;;17.31;49.15;93362.81;5032820;28;20061;-88
2023/05/13 06:28:59;;;;;;;6.78;4.10;;;;;;;17.34;49.26;93372.72;5012483;28;20053;-87
2023/05/13 06:31:25;;;;;;;8.70;4.63;;;;;;;17.33;49.26;93368.50;4993920;28;20045;-88
2023/05/13 06:33:50;;;;;;;23.10;6.60;;;;;;;17.31;49.01;93365.56;5032549;28;20410;-89
2023/05/13 06:36:15;;;;;;;15.55;5.72;;;;;;;17.28;48.91;93367.31;5015790;28;20041;-88
2023/05/13 06:38:44;;;;;;;9.93;5.55;;;;;;;17.33;49.26;93369.25;5010966;28;20045;-88
2023/05/13 06:41:09;;;;;;;10.52;6.07;;;;;;;17.34;48.87;93367.25;5028646;28;20053;-88
2023/05/13 06:43:35;;;;;;;11.65;6.85;;;;;;;17.37;48.77;93374.44;5032255;28;20416;-88
2023/05/13 06:46:00;;;;;;;14.38;9.30;;;;;;;17.36;48.57;93379.16;5025620;28;20147;-88
2023/05/13 06:48:26;;;;;;;17.15;10.13;;;;;;;17.34;49.22;93375.44;5011289;28;20045;-88
2023/05/13 06:50:52;;;;;;;23.85;12.65;;;;;;;17.33;49.06;93377.44;5028743;28;20045;-89
2023/05/13 06:53:19;;;;;;;21.55;13.07;;;;;;;17.32;49.11;93380.69;5012447;28;20045;-89
2023/05/13 06:55:45;;;;;;;25.52;15.13;;;;;;;17.33;49.31;93382.16;5064408;28;20033;-88
2023/05/13 06:58:10;;;;;;;31.38;16.45;;;;;;;17.35;49.32;93379.66;5049575;28;20037;-88
2023/05/13 07:00:39;;;;;;;45.53;24.13;;;;;;;17.39;48.94;93377.41;5024755;28;20072;-89
2023/05/13 07:03:05;;;;;;;83.88;42.50;;;;;;;17.39;49.11;93382.88;5012575;28;20124;-88
2023/05/13 07:05:31;;;;;;;109.45;57.60;;;;;;;17.37;48.92;93385.38;4997385;28;20125;-89
2023/05/13 07:07:57;;;;;;;119.43;64.30;;;;;;;17.35;49.23;93387.88;5020435;28;20116;-88
2023/05/13 07:10:22;;;;;;;156.98;86.82;;;;;;;17.37;48.99;93391.59;5003188;28;20049;-88
2023/05/13 07:12:47;;;;;;;188.00;104.28;;;;;;;17.33;48.95;93393.84;5011846;28;20056;-88
2023/05/13 07:15:13;;;;;;;216.48;117.72;;;;;;;17.34;49.11;93394.56;5010279;28;20044;-88
2023/05/13 07:17:38;;;;;;;252.88;133.60;;;;;;;17.35;49.19;93396.81;4994758;28;20550;-88
2023/05/13 07:20:05;;;;;;;248.00;136.05;;;;;;;17.31;49.13;93403.81;5012481;28;20061;-88
2023/05/13 07:22:30;;;;;;;247.60;140.13;;;;;;;17.38;48.99;93404.00;4980928;28;20386;-88
2023/05/13 07:24:55;;;;;;;249.00;136.25;;;;;;;17.38;49.30;93401.25;5015790;28;20053;-88
2023/05/13 07:27:22;;;;;;;254.13;145.90;;;;;;;17.34;48.79;93400.03;5006116;28;20377;-88
2023/05/13 07:29:47;;;;;;;272.20;146.82;;;;;;;17.32;48.95;93397.81;4996593;28;20053;-88
2023/05/13 07:32:13;;;;;;;267.85;155.50;;;;;;;17.38;48.96;93406.72;5028639;28;20091;-88
2023/05/13 07:34:38;;;;;;;262.98;148.55;;;;;;;17.39;49.03;93408.22;5033656;28;20045;-89
2023/05/13 07:37:04;;;;;;;274.27;154.88;;;;;;;17.38;49.32;93400.53;5033592;28;20048;-88
2023/05/13 07:39:29;;;;;;;278.13;160.18;;;;;;;17.39;48.98;93405.47;5028156;28;20047;-88
2023/05/13 07:41:54;;;;;;;282.92;165.75;;;;;;;17.38;49.19;93406.00;5034323;28;20049;-88
2023/05/13 07:44:20;;;;;;;312.98;176.55;;;;;;;17.38;49.35;93406.00;5033515;28;20045;-88
2023/05/13 07:46:46;;;;;;;316.15;181.50;;;;;;;17.40;49.25;93408.97;5029083;28;20114;-88
2023/05/13 07:49:12;;;;;;;292.40;176.95;;;;;;;17.38;49.06;93414.19;5033295;28;20064;-88
2023/05/13 07:51:37;;;;;;;312.40;187.95;;;;;;;17.43;49.17;93405.97;5033311;28;20357;-88
2023/05/13 07:54:03;;;;;;;315.15;185.93;;;;;;;17.36;49.37;93408.47;5024050;28;20382;-88
2023/05/13 07:56:29;;;;;;;301.83;187.20;;;;;;;17.42;49.19;93406.47;5033726;28;20118;-88
2023/05/13 07:58:54;;;;;;;325.80;198.00;;;;;;;17.37;49.24;93421.63;5016570;28;20127;-88
2023/05/13 08:01:20;;;;;;;344.02;203.88;;;;;;;17.32;49.01;93408.75;5022973;28;20072;-88
2023/05/13 08:03:45;;;;;;;319.23;191.20;;;;;;;17.38;49.02;93398.53;5032457;28;20060;-89
2023/05/13 08:06:10;;;;;;;316.58;193.00;;;;;;;17.35;48.74;93407.72;5031601;28;20044;-88
2023/05/13 08:08:36;;;;;;;308.30;188.50;;;;;;;17.35;49.13;93410.47;5061023;28;20041;-88
2023/05/13 08:11:01;;;;;;;314.30;189.70;;;;;;;17.36;48.97;93414.69;5033576;28;20170;-88
2023/05/13 08:13:27;;;;;;;329.17;189.50;;;;;;;17.29;49.47;93412.50;5039720;28;20049;-89
2023/05/13 08:15:52;;;;;;;310.20;182.75;;;;;;;17.33;48.91;93412.22;5043595;28;20095;-89
2023/05/13 08:18:18;;;;;;;316.65;176.02;;;;;;;17.35;49.29;93398.78;5031717;28;20048;-89
2023/05/13 08:20:43;;;;;;;304.40;177.10;;;;;;;17.38;48.97;93406.72;5015951;28;20041;-89
2023/05/13 08:23:09;;;;;;;318.70;171.85;;;;;;;17.39;49.18;93407.47;5010526;28;20060;-89
2023/05/13 08:25:34;;;;;;;335.77;189.55;;;;;;;17.42;49.02;93411.94;5032198;28;20056;-88
2023/05/13 08:28:00;;;;;;;297.00;169.73;;;;;;;17.41;49.00;93410.44;5014100;28;20045;-88
2023/05/13 08:30:25;;;;;;;333.30;182.23;;;;;;;17.38;49.02;93416.91;5025847;28;20068;-88
2023/05/13 08:32:51;;;;;;;304.67;170.98;;;;;;;17.44;49.19;93415.66;5030643;28;20503;-89
2023/05/13 08:35:16;;;;;;;317.35;176.75;;;;;;;17.42;49.20;93422.88;5030028;28;20037;-89
2023/05/13 08:37:42;;;;;;;316.00;183.02;;;;;;;17.42;49.09;93407.22;5024985;28;20048;-88
2023/05/13 08:40:09;;;;;;;331.00;183.18;;;;;;;17.41;49.26;93415.91;5029218;28;20106;-88
2023/05/13 08:42:37;;;;;;;316.75;179.95;;;;;;;17.41;49.06;93410.44;5031660;28;20036;-89
2023/05/13 08:45:04;;;;;;;331.00;184.80;;;;;;;17.39;49.41;93419.16;5026404;28;20045;-88
2023/05/13 08:47:36;;;;;;;316.10;181.05;;;;;;;17.42;49.05;93420.88;5030146;28;20411;-88
2023/05/13 08:50:01;;;;;;;323.48;180.98;;;;;;;17.40;49.41;93430.81;5047956;28;20449;-88
2023/05/13 08:52:26;;;;;;;313.50;172.70;;;;;;;17.39;49.15;93424.63;5024150;28;21158;-89
2023/05/13 08:54:52;;;;;;;332.33;176.90;;;;;;;17.42;49.35;93420.13;5030677;28;20033;-89
2023/05/13 08:57:17;;;;;;;298.08;161.93;;;;;;;17.36;49.70;93417.41;5029198;28;20514;-88
2023/05/13 08:59:43;;;;;;;314.10;165.27;;;;;;;17.41;49.17;93411.19;5025879;28;20037;-89
2023/05/13 09:02:08;;;;;;;298.88;162.75;;;;;;;17.42;49.19;93418.16;5026307;28;20041;-89
2023/05/13 09:04:36;;;;;;;304.95;166.43;;;;;;;17.45;48.94;93421.88;5030027;28;20068;-89
2023/05/13 09:07:03;;;;;;;320.70;180.75;;;;;;;17.39;49.24;93405.47;5008480;28;20825;-89
2023/05/13 09:09:29;;;;;;;300.17;169.95;;;;;;;17.44;49.13;93410.19;5029862;28;20124;-89
2023/05/13 09:11:55;;;;;;;313.42;168.73;;;;;;;17.44;49.51;93409.44;5013481;28;20144;-90
2023/05/13 09:14:20;;;;;;;284.95;161.15;;;;;;;17.44;49.33;93414.91;5007359;28;20045;-89
2023/05/13 09:16:46;;;;;;;289.90;162.07;;;;;;;17.42;49.33;93420.13;5029589;28;20045;-89
2023/05/13 09:19:12;;;;;;;284.40;159.52;;;;;;;17.47;49.20;93419.38;5042507;28;20863;-88
2023/05/13 09:21:38;;;;;;;275.13;158.23;;;;;;;17.46;49.16;93424.09;5021369;28;20219;-89
2023/05/13 09:24:09;;;;;;;288.77;158.93;;;;;;;17.47;49.23;93411.16;5029751;28;20041;-89
2023/05/13 09:26:35;;;;;;;296.35;160.30;;;;;;;17.45;48.83;93421.88;5029828;28;20124;-88
2023/05/13 09:29:29;;;;;;;262.95;148.73;;;;;;;17.43;48.93;93410.69;5006745;28;20138;-89
2023/05/13 09:32:00;;;;;;;254.38;143.10;;;;;;;17.42;49.47;93406.47;5027000;28;20051;-89
2023/05/13 09:34:29;;;;;;;272.90;159.57;;;;;;;17.52;49.06;93404.19;5025818;28;20061;-89
2023/05/13 09:37:07;;;;;;;271.02;151.30;;;;;;;17.46;49.29;93406.94;5023334;28;20041;-88
2023/05/13 09:39:38;;;;;;;264.83;149.88;;;;;;;17.48;49.30;93409.94;5029441;28;20041;-89
2023/05/13 09:42:03;;;;;;;260.40;147.70;;;;;;;17.47;49.27;93397.50;5009580;28;20045;-88
2023/05/13 09:44:29;;;;;;;260.60;148.52;;;;;;;17.51;49.47;93405.44;5019536;28;20554;-90
2023/05/13 09:46:54;;;;;;;254.30;147.77;;;;;;;17.50;49.14;93410.16;5015511;28;20044;-90
2023/05/13 09:49:24;;;;;;;241.75;140.30;;;;;;;17.50;49.30;93406.69;5012429;28;20469;-88
2023/05/13 09:51:50;;;;;;;263.83;146.83;;;;;;;17.44;48.79;93396.53;5006396;28;20040;-88
2023/05/13 09:54:15;;;;;;;239.45;133.40;;;;;;;17.48;49.55;93399.75;5045467;28;20041;-89
2023/05/13 09:56:41;;;;;;;235.90;136.23;;;;;;;17.51;49.31;93405.44;5012257;28;20049;-89
2023/05/13 09:59:06;;;;;;;247.68;141.48;;;;;;;17.57;49.46;93400.66;5007458;28;20044;-89
2023/05/13 10:01:31;;;;;;;236.32;135.48;;;;;;;17.52;49.22;93404.19;5029850;28;20045;-88
2023/05/13 10:04:00;;;;;;;253.38;139.35;;;;;;;17.49;49.08;93397.75;5028807;28;20048;-88
2023/05/13 10:06:27;;;;;;;231.75;132.95;;;;;;;17.49;49.11;93400.47;5009376;28;20544;-87
2023/05/13 10:08:53;;;;;;;226.90;136.00;;;;;;;17.49;49.23;93395.00;5030270;28;20032;-87
2023/05/13 10:11:18;;;;;;;218.27;125.43;;;;;;;17.55;49.50;93409.38;5014117;28;20048;-87
2023/05/13 10:13:47;;;;;;;238.77;131.13;;;;;;;17.51;49.39;93406.19;5010170;28;20127;-86
2023/05/13 10:16:13;;;;;;;239.52;133.10;;;;;;;17.55;49.40;93401.19;5009067;28;20107;-87
2023/05/13 10:18:38;;;;;;;243.38;140.77;;;;;;;17.52;49.09;93404.19;5008210;28;20381;-87
2023/05/13 10:21:04;;;;;;;250.52;148.18;;;;;;;17.48;49.16;93399.00;5027291;28;20043;-87
2023/05/13 10:23:31;;;;;;;247.45;144.20;;;;;;;17.51;49.11;93402.72;5018392;28;20045;-88
2023/05/13 10:25:57;;;;;;;230.52;134.70;;;;;;;17.52;49.42;93404.19;5030071;28;20041;-88
2023/05/13 10:28:24;;;;;;;213.27;126.28;;;;;;;17.54;49.25;93405.16;5015549;28;20056;-88
2023/05/13 10:30:51;;;;;;;266.90;141.15;;;;;;;17.50;49.01;93404.69;5018411;28;20102;-90
2023/05/13 10:33:17;;;;;;;235.52;135.73;;;;;;;17.58;49.17;93396.69;5015400;28;20053;-90
2023/05/13 10:36:05;;;;;;;261.00;140.30;;;;;;;17.53;49.29;93406.44;5044834;28;20568;-89
2023/05/13 10:38:46;;;;;;;220.48;122.40;;;;;;;17.52;49.96;93409.66;5038156;28;20466;-89
2023/05/13 10:41:37;;;;;;;234.32;131.50;;;;;;;17.52;49.74;93413.13;5047657;28;20056;-89
2023/05/13 10:44:02;;;;;;;265.38;140.27;;;;;;;17.51;49.59;93403.47;5040557;28;20095;-89
2023/05/13 10:46:28;;;;;;;235.20;128.93;;;;;;;17.58;49.27;93399.44;5031224;28;20045;-89
2023/05/13 10:48:58;;;;;;;210.65;124.38;;;;;;;17.55;49.63;93392.97;5026957;28;20048;-89
2023/05/13 10:51:23;;;;;;;202.90;114.28;;;;;;;17.58;49.71;93402.16;5005283;28;20037;-89
2023/05/13 10:53:50;;;;;;;215.18;122.32;;;;;;;17.51;49.27;93398.00;5012410;28;20060;-90
2023/05/13 10:56:18;;;;;;;214.00;127.18;;;;;;;17.58;49.43;93396.69;5017186;28;20033;-90
2023/05/13 10:58:44;;;;;;;193.70;120.07;;;;;;;17.55;48.82;93392.22;5008746;28;20212;-89
2023/05/13 11:01:13;;;;;;;215.90;123.70;;;;;;;17.54;49.67;93394.22;5008383;28;20045;-90
2023/05/13 11:03:38;;;;;;;202.35;118.38;;;;;;;17.55;49.58;93386.75;5009777;28;20057;-89
2023/05/13 11:06:18;;;;;;;207.27;119.47;;;;;;;17.53;49.21;93400.22;5039337;28;20037;-89
2023/05/13 11:08:47;;;;;;;187.50;114.88;;;;;;;17.57;49.64;93397.94;5031737;28;20527;-88
2023/05/13 11:11:21;;;;;;;190.48;111.65;;;;;;;17.58;49.58;93397.44;5015490;28;20131;-89
2023/05/13 11:13:50;;;;;;;192.48;112.03;;;;;;;17.59;49.58;93396.19;5042587;28;20045;-89
2023/05/13 11:16:15;;;;;;;199.15;118.38;;;;;;;17.57;49.01;93389.75;5014860;28;20182;-89